Minot, ND (58701)

7:46 AM CST on December 04, 2016 (GMT -0600)
Edgeview Estates | | Change Station

Elev 1752 ft 48.21 °N, 101.33 °W | Updated 14 seconds ago

Overcast
Overcast
27.1 °F
Feels Like 19 °F
N
8.0
Wind Variable Wind from North
Gusts 11.0 mph

Today
High -- | Low -- °F
--% Chance of Precip.
Yesterday
High -- | Low -- °F
Precip. -- in
Pressure 29.77 in
Visibility 9.0 miles
Clouds Mostly Cloudy 8000 ft
Overcast 10000 ft
Windchill 19 °F
Dew Point 23 °F
Humidity 83%
Rainfall 0.00 in
Snow Depth Not available.
8:19 AM 4:52 PM
Waxing Crescent, 22% visible
METAR KMOT 041254Z AUTO 27012KT 9SM BKN080 OVC100 M03/M04 A2970 RMK AO2 SLP079 T10281044
Pressure 29.77 in
Visibility 9.0 miles
Clouds Mostly Cloudy 8000 ft
Overcast 10000 ft
Windchill 19 °F
Dew Point 23 °F
Humidity 83%
Rainfall 0.00 in
Snow Depth Not available.
8:19 AM 4:52 PM
Waxing Crescent, 22% visible
METAR KMOT 041254Z AUTO 27012KT 9SM BKN080 OVC100 M03/M04 A2970 RMK AO2 SLP079 T10281044

10-Day Weather Forecast

Almanac

Astronomy

Dec. 04, 2016 Rise Set
Actual Time
Civil Twilight
Nautical Twilight
Astronomical Twilight
Moon
Length of Visible Light
Length of Day
Tomorrow will be .
, % of the Moon is Illuminated

Today's Extremes

State Highs State Lows

Community

WunderPhotos

Upload Photos

1,955,596 photos uploaded!

WunderBlog® & News

Nearby

Air Quality

  Air Quality AQ Index Pollutant
Not available.

Snow Depth

Station Depth Elevation

Earthquake Activity

City Distance Mag. Time & Date
Minimum magnitude displayed is 2.5.

Coastal Water Temperatures

Place Temperature

Stations

Nearby Weather Stations

Station Location Temp. Windchill Dew Point Humidity Wind Precip. Elev Updated Type
                   

Watches & Warnings

There are currently no watches in effect.